Thawville, Illinois
Current Conditions -  °F | °C
As of 5:50 PM on Monday 22 Dec 2014 (Local Time) from KTIP Reporting Station
Light Rain Light Rain  
Wind Chill: 38°   Ceiling: 500
Heat Index: 46°   Visibility: 5mi
Dew Point: 44°   Wind: 20mph
Humidity: 95%   Direction: 130°SE
Pressure: 29.63"   Gusts: NA
Location:  40.68°N, 88.12°W
Report Text: KTIP 222350Z AUTO 13017KT 5SM -RA BKN005 OVC011 08/07 A2963 RMK AO2 60009 T00750067 10075 20041
Loading
Personal Weather Stations






























Interactive Weather Map New forecast layout! Learn more

10-Day Weather Forecast

Advertisements
Track Severe Weather on mobile